Portada
METAR-TAF:

METAR-TAF

Aeroports :

Donegal, Irlanda

latitud: 55-02-39N, longitud: 8-20-28W, altitud: 9 m

Observació

L'informe es va fer fa 54 minuts, a les 19:00 UTC
Vent 7 kt del Nord/Nord-Est
Temperatura 17°C
Humitat 82%
Pressió 1015 hPa
Visibilitat 10 km o més
Escasses núvols a una alçada de 3700 ft
Cel ennuvolat a una alçada de 4200 ft

METAR: EIDL 241900Z 02007KT 9999 FEW037 BKN042 17/14 Q1015

Hora: 20:54 (19:54 UTC)

Pronòstic

L'informe es va fer fa 2 hores i 54 minuts, a les 17:00 UTC
Pronòstic vàlid del 24 a les 18 UTC al 24 a les 21 UTC
Vent 3 kt amb direcció variable
Visibilitat 10 km o més
Escasses núvols a una alçada de 4000 ft
Probabilitat 30% :
Temporalment
l' 24 a les 18 UTC al 24 a les 21 UTC
Visibilitat: 4000 m
pluja

TAF: EIDL 241700Z 2418/2421 VRB03KT 9999 FEW040 PROB30 TEMPO 2418/2421 4000 -RA

Observacions i pronòstics meteorològics de més de 4000 aeroports (METAR i TAF).

Les estacions disponibles són els punts grocs i vermells al mapa.

Posi el ratolí al punt desitjat per veure el nom de l'estació.

Feu clic per veure les observacions i els pronòstics meteorològics.

Per canviar el mapa: feu clic els botons verds amb una creu de color negre per apropar; al botó verd amb un guió per allunyar la imatge; o en les fletxes verdes per a mapes adjacents.


METAR-TAF: